sensor_id;sensor_type;location;lat;lon;timestamp;P1;durP1;ratioP1;P2;durP2;ratioP2
80247;SDS011;69560;52.206;21.018;2024-03-02T00:01:46;49.90;;;34.50;;
80247;SDS011;69560;52.206;21.018;2024-03-02T00:04:12;46.10;;;33.30;;
80247;SDS011;69560;52.206;21.018;2024-03-02T00:06:39;47.70;;;34.10;;
80247;SDS011;69560;52.206;21.018;2024-03-02T00:09:05;46.90;;;34.40;;
80247;SDS011;69560;52.206;21.018;2024-03-02T00:11:35;52.00;;;35.00;;
80247;SDS011;69560;52.206;21.018;2024-03-02T00:14:02;51.90;;;33.10;;
80247;SDS011;69560;52.206;21.018;2024-03-02T00:16:30;49.00;;;31.50;;
80247;SDS011;69560;52.206;21.018;2024-03-02T00:19:01;44.50;;;31.80;;
80247;SDS011;69560;52.206;21.018;2024-03-02T00:21:29;45.90;;;31.10;;
80247;SDS011;69560;52.206;21.018;2024-03-02T00:23:57;45.00;;;30.10;;
80247;SDS011;69560;52.206;21.018;2024-03-02T00:26:24;43.90;;;30.90;;
80247;SDS011;69560;52.206;21.018;2024-03-02T00:28:50;46.30;;;32.80;;
80247;SDS011;69560;52.206;21.018;2024-03-02T00:31:23;46.10;;;32.10;;
80247;SDS011;69560;52.206;21.018;2024-03-02T00:33:49;50.00;;;32.50;;
80247;SDS011;69560;52.206;21.018;2024-03-02T00:36:18;52.20;;;34.10;;
80247;SDS011;69560;52.206;21.018;2024-03-02T00:38:51;44.30;;;31.10;;
80247;SDS011;69560;52.206;21.018;2024-03-02T00:44:02;48.20;;;32.00;;
80247;SDS011;69560;52.206;21.018;2024-03-02T00:49:03;44.70;;;31.00;;
80247;SDS011;69560;52.206;21.018;2024-03-02T00:51:32;48.00;;;32.90;;
80247;SDS011;69560;52.206;21.018;2024-03-02T00:54:00;46.50;;;32.20;;
80247;SDS011;69560;52.206;21.018;2024-03-02T00:56:32;48.10;;;34.40;;
80247;SDS011;69560;52.206;21.018;2024-03-02T00:58:59;44.40;;;32.10;;
80247;SDS011;69560;52.206;21.018;2024-03-02T01:01:26;44.90;;;31.90;;
80247;SDS011;69560;52.206;21.018;2024-03-02T01:03:53;43.80;;;31.30;;
80247;SDS011;69560;52.206;21.018;2024-03-02T01:06:19;44.30;;;31.80;;
80247;SDS011;69560;52.206;21.018;2024-03-02T01:08:46;43.70;;;30.80;;
80247;SDS011;69560;52.206;21.018;2024-03-02T01:11:17;46.20;;;32.20;;
80247;SDS011;69560;52.206;21.018;2024-03-02T01:13:45;44.80;;;32.00;;
80247;SDS011;69560;52.206;21.018;2024-03-02T01:16:12;45.60;;;32.10;;
80247;SDS011;69560;52.206;21.018;2024-03-02T01:18:39;46.50;;;33.20;;
80247;SDS011;69560;52.206;21.018;2024-03-02T01:21:05;46.20;;;32.50;;
80247;SDS011;69560;52.206;21.018;2024-03-02T01:23:32;46.70;;;32.30;;
80247;SDS011;69560;52.206;21.018;2024-03-02T01:25:58;45.80;;;31.70;;
80247;SDS011;69560;52.206;21.018;2024-03-02T01:28:25;46.00;;;31.20;;
80247;SDS011;69560;52.206;21.018;2024-03-02T01:30:51;48.20;;;32.30;;
80247;SDS011;69560;52.206;21.018;2024-03-02T01:33:20;45.10;;;31.70;;
80247;SDS011;69560;52.206;21.018;2024-03-02T01:35:47;45.00;;;30.30;;
80247;SDS011;69560;52.206;21.018;2024-03-02T01:38:13;44.60;;;32.00;;
80247;SDS011;69560;52.206;21.018;2024-03-02T01:40:40;46.40;;;32.00;;
80247;SDS011;69560;52.206;21.018;2024-03-02T01:43:08;44.70;;;31.60;;
80247;SDS011;69560;52.206;21.018;2024-03-02T01:45:35;41.70;;;30.30;;
80247;SDS011;69560;52.206;21.018;2024-03-02T01:48:06;45.50;;;32.10;;
80247;SDS011;69560;52.206;21.018;2024-03-02T01:50:33;45.20;;;31.80;;
80247;SDS011;69560;52.206;21.018;2024-03-02T01:53:00;42.20;;;30.10;;
80247;SDS011;69560;52.206;21.018;2024-03-02T01:55:29;43.20;;;28.90;;
80247;SDS011;69560;52.206;21.018;2024-03-02T01:57:56;42.30;;;30.40;;
80247;SDS011;69560;52.206;21.018;2024-03-02T02:00:26;41.20;;;29.30;;
80247;SDS011;69560;52.206;21.018;2024-03-02T02:02:53;45.20;;;32.40;;
80247;SDS011;69560;52.206;21.018;2024-03-02T02:05:20;42.80;;;31.00;;
80247;SDS011;69560;52.206;21.018;2024-03-02T02:07:48;41.30;;;30.80;;
80247;SDS011;69560;52.206;21.018;2024-03-02T02:10:15;42.20;;;30.60;;
80247;SDS011;69560;52.206;21.018;2024-03-02T02:12:41;42.30;;;30.40;;
80247;SDS011;69560;52.206;21.018;2024-03-02T02:17:55;42.00;;;29.10;;
80247;SDS011;69560;52.206;21.018;2024-03-02T02:20:22;43.10;;;30.20;;
80247;SDS011;69560;52.206;21.018;2024-03-02T02:25:26;44.10;;;32.10;;
80247;SDS011;69560;52.206;21.018;2024-03-02T02:27:53;44.40;;;32.40;;
80247;SDS011;69560;52.206;21.018;2024-03-02T02:30:21;45.30;;;31.70;;
80247;SDS011;69560;52.206;21.018;2024-03-02T02:32:49;40.70;;;28.60;;
80247;SDS011;69560;52.206;21.018;2024-03-02T02:35:16;44.60;;;29.80;;
80247;SDS011;69560;52.206;21.018;2024-03-02T02:37:43;38.20;;;27.80;;
80247;SDS011;69560;52.206;21.018;2024-03-02T02:40:11;40.00;;;28.70;;
80247;SDS011;69560;52.206;21.018;2024-03-02T02:42:38;39.70;;;29.40;;
80247;SDS011;69560;52.206;21.018;2024-03-02T02:45:06;41.20;;;29.50;;
80247;SDS011;69560;52.206;21.018;2024-03-02T02:47:33;42.40;;;30.70;;
80247;SDS011;69560;52.206;21.018;2024-03-02T02:50:04;43.60;;;31.50;;
80247;SDS011;69560;52.206;21.018;2024-03-02T02:52:34;40.60;;;29.60;;
80247;SDS011;69560;52.206;21.018;2024-03-02T02:55:03;43.00;;;29.60;;
80247;SDS011;69560;52.206;21.018;2024-03-02T02:57:31;40.70;;;28.70;;
80247;SDS011;69560;52.206;21.018;2024-03-02T03:00:11;36.60;;;26.70;;
80247;SDS011;69560;52.206;21.018;2024-03-02T03:02:42;41.00;;;28.70;;
80247;SDS011;69560;52.206;21.018;2024-03-02T03:05:10;39.20;;;27.90;;
80247;SDS011;69560;52.206;21.018;2024-03-02T03:07:39;39.60;;;28.90;;
80247;SDS011;69560;52.206;21.018;2024-03-02T03:10:07;39.00;;;28.70;;
80247;SDS011;69560;52.206;21.018;2024-03-02T03:12:34;39.40;;;29.20;;
80247;SDS011;69560;52.206;21.018;2024-03-02T03:15:02;39.00;;;28.90;;
80247;SDS011;69560;52.206;21.018;2024-03-02T03:17:30;40.30;;;28.90;;
80247;SDS011;69560;52.206;21.018;2024-03-02T03:19:57;38.60;;;27.90;;
80247;SDS011;69560;52.206;21.018;2024-03-02T03:22:24;36.70;;;27.20;;
80247;SDS011;69560;52.206;21.018;2024-03-02T03:24:50;37.20;;;26.80;;
80247;SDS011;69560;52.206;21.018;2024-03-02T03:27:17;38.70;;;27.20;;
80247;SDS011;69560;52.206;21.018;2024-03-02T03:29:43;38.10;;;27.40;;
80247;SDS011;69560;52.206;21.018;2024-03-02T03:32:10;37.70;;;27.00;;
80247;SDS011;69560;52.206;21.018;2024-03-02T03:34:36;36.10;;;27.00;;
80247;SDS011;69560;52.206;21.018;2024-03-02T03:37:03;37.10;;;28.30;;
80247;SDS011;69560;52.206;21.018;2024-03-02T03:39:29;41.40;;;28.80;;
80247;SDS011;69560;52.206;21.018;2024-03-02T03:41:57;44.40;;;29.50;;
80247;SDS011;69560;52.206;21.018;2024-03-02T03:44:24;38.40;;;27.70;;
80247;SDS011;69560;52.206;21.018;2024-03-02T03:46:51;40.10;;;28.70;;
80247;SDS011;69560;52.206;21.018;2024-03-02T03:49:17;33.90;;;25.10;;
80247;SDS011;69560;52.206;21.018;2024-03-02T03:51:44;37.80;;;27.10;;
80247;SDS011;69560;52.206;21.018;2024-03-02T03:54:10;39.10;;;28.20;;
80247;SDS011;69560;52.206;21.018;2024-03-02T03:56:37;39.20;;;28.90;;
80247;SDS011;69560;52.206;21.018;2024-03-02T03:59:04;39.50;;;28.00;;
80247;SDS011;69560;52.206;21.018;2024-03-02T04:01:31;39.70;;;28.80;;
80247;SDS011;69560;52.206;21.018;2024-03-02T04:03:57;41.10;;;27.90;;
80247;SDS011;69560;52.206;21.018;2024-03-02T04:06:24;39.40;;;28.20;;
80247;SDS011;69560;52.206;21.018;2024-03-02T04:08:51;38.80;;;27.30;;
80247;SDS011;69560;52.206;21.018;2024-03-02T04:11:17;40.30;;;27.90;;
80247;SDS011;69560;52.206;21.018;2024-03-02T04:13:44;36.40;;;27.40;;
80247;SDS011;69560;52.206;21.018;2024-03-02T04:16:11;38.60;;;27.70;;
80247;SDS011;69560;52.206;21.018;2024-03-02T04:18:38;39.90;;;29.60;;
80247;SDS011;69560;52.206;21.018;2024-03-02T04:21:05;40.20;;;29.30;;
80247;SDS011;69560;52.206;21.018;2024-03-02T04:23:32;40.10;;;28.70;;
80247;SDS011;69560;52.206;21.018;2024-03-02T04:25:58;41.60;;;28.40;;
80247;SDS011;69560;52.206;21.018;2024-03-02T04:28:25;41.10;;;29.20;;
80247;SDS011;69560;52.206;21.018;2024-03-02T04:30:51;40.70;;;28.60;;
80247;SDS011;69560;52.206;21.018;2024-03-02T04:33:18;39.00;;;26.80;;
80247;SDS011;69560;52.206;21.018;2024-03-02T04:35:44;38.90;;;29.40;;
80247;SDS011;69560;52.206;21.018;2024-03-02T04:38:11;40.50;;;29.00;;
80247;SDS011;69560;52.206;21.018;2024-03-02T04:40:37;39.40;;;28.50;;
80247;SDS011;69560;52.206;21.018;2024-03-02T04:43:04;36.80;;;27.30;;
80247;SDS011;69560;52.206;21.018;2024-03-02T04:45:30;41.30;;;27.90;;
80247;SDS011;69560;52.206;21.018;2024-03-02T04:47:57;38.70;;;28.60;;
80247;SDS011;69560;52.206;21.018;2024-03-02T04:50:23;41.70;;;29.20;;
80247;SDS011;69560;52.206;21.018;2024-03-02T04:52:50;41.00;;;27.90;;
80247;SDS011;69560;52.206;21.018;2024-03-02T04:55:16;40.10;;;26.80;;
80247;SDS011;69560;52.206;21.018;2024-03-02T04:57:55;36.30;;;25.80;;
80247;SDS011;69560;52.206;21.018;2024-03-02T05:00:22;40.90;;;27.70;;
80247;SDS011;69560;52.206;21.018;2024-03-02T05:02:49;43.40;;;28.70;;
80247;SDS011;69560;52.206;21.018;2024-03-02T05:05:15;38.80;;;26.90;;
80247;SDS011;69560;52.206;21.018;2024-03-02T05:07:42;36.70;;;27.70;;
80247;SDS011;69560;52.206;21.018;2024-03-02T05:10:10;39.30;;;28.30;;
80247;SDS011;69560;52.206;21.018;2024-03-02T05:12:40;37.30;;;27.10;;
80247;SDS011;69560;52.206;21.018;2024-03-02T05:15:10;42.40;;;27.30;;
80247;SDS011;69560;52.206;21.018;2024-03-02T05:17:39;37.10;;;26.50;;
80247;SDS011;69560;52.206;21.018;2024-03-02T05:20:06;40.10;;;26.00;;
80247;SDS011;69560;52.206;21.018;2024-03-02T05:22:37;39.10;;;26.40;;
80247;SDS011;69560;52.206;21.018;2024-03-02T05:25:04;37.30;;;26.20;;
80247;SDS011;69560;52.206;21.018;2024-03-02T05:27:31;38.90;;;27.10;;
80247;SDS011;69560;52.206;21.018;2024-03-02T05:30:00;39.20;;;27.00;;
80247;SDS011;69560;52.206;21.018;2024-03-02T05:32:28;39.50;;;27.40;;
80247;SDS011;69560;52.206;21.018;2024-03-02T05:34:54;42.00;;;28.10;;
80247;SDS011;69560;52.206;21.018;2024-03-02T05:37:21;41.90;;;28.10;;
80247;SDS011;69560;52.206;21.018;2024-03-02T05:39:47;36.60;;;26.60;;
80247;SDS011;69560;52.206;21.018;2024-03-02T05:42:14;34.80;;;25.00;;
80247;SDS011;69560;52.206;21.018;2024-03-02T05:44:40;37.30;;;25.60;;
80247;SDS011;69560;52.206;21.018;2024-03-02T05:47:07;37.80;;;25.10;;
80247;SDS011;69560;52.206;21.018;2024-03-02T05:49:35;36.10;;;25.60;;
80247;SDS011;69560;52.206;21.018;2024-03-02T05:52:02;38.50;;;25.90;;
80247;SDS011;69560;52.206;21.018;2024-03-02T05:54:29;37.80;;;26.30;;
80247;SDS011;69560;52.206;21.018;2024-03-02T05:56:56;39.10;;;25.80;;
80247;SDS011;69560;52.206;21.018;2024-03-02T05:59:22;37.40;;;26.70;;
80247;SDS011;69560;52.206;21.018;2024-03-02T06:01:49;37.80;;;25.80;;
80247;SDS011;69560;52.206;21.018;2024-03-02T06:04:18;39.90;;;26.30;;
80247;SDS011;69560;52.206;21.018;2024-03-02T06:06:45;39.60;;;25.90;;
80247;SDS011;69560;52.206;21.018;2024-03-02T06:09:12;38.10;;;25.50;;
80247;SDS011;69560;52.206;21.018;2024-03-02T06:11:39;35.50;;;25.00;;
80247;SDS011;69560;52.206;21.018;2024-03-02T06:14:07;33.40;;;24.30;;
80247;SDS011;69560;52.206;21.018;2024-03-02T06:16:34;40.90;;;25.10;;
80247;SDS011;69560;52.206;21.018;2024-03-02T06:19:01;37.50;;;24.90;;
80247;SDS011;69560;52.206;21.018;2024-03-02T06:21:29;33.90;;;24.00;;
80247;SDS011;69560;52.206;21.018;2024-03-02T06:23:56;41.50;;;26.90;;
80247;SDS011;69560;52.206;21.018;2024-03-02T06:26:22;34.50;;;24.90;;
80247;SDS011;69560;52.206;21.018;2024-03-02T06:28:49;36.40;;;24.00;;
80247;SDS011;69560;52.206;21.018;2024-03-02T06:31:17;34.00;;;23.80;;
80247;SDS011;69560;52.206;21.018;2024-03-02T06:33:43;37.10;;;24.40;;
80247;SDS011;69560;52.206;21.018;2024-03-02T06:36:10;35.90;;;24.00;;
80247;SDS011;69560;52.206;21.018;2024-03-02T06:38:38;39.00;;;24.40;;
80247;SDS011;69560;52.206;21.018;2024-03-02T06:41:06;35.00;;;24.30;;
80247;SDS011;69560;52.206;21.018;2024-03-02T06:43:33;35.90;;;24.80;;
80247;SDS011;69560;52.206;21.018;2024-03-02T06:46:00;37.10;;;25.90;;
80247;SDS011;69560;52.206;21.018;2024-03-02T06:48:27;36.80;;;25.10;;
80247;SDS011;69560;52.206;21.018;2024-03-02T06:50:58;35.60;;;23.50;;
80247;SDS011;69560;52.206;21.018;2024-03-02T06:53:25;35.50;;;24.20;;
80247;SDS011;69560;52.206;21.018;2024-03-02T06:55:51;33.00;;;22.60;;
80247;SDS011;69560;52.206;21.018;2024-03-02T06:58:18;33.00;;;23.40;;
80247;SDS011;69560;52.206;21.018;2024-03-02T07:00:44;31.80;;;22.70;;
80247;SDS011;69560;52.206;21.018;2024-03-02T07:03:11;33.70;;;23.10;;
80247;SDS011;69560;52.206;21.018;2024-03-02T07:05:39;37.50;;;22.80;;
80247;SDS011;69560;52.206;21.018;2024-03-02T07:08:07;32.10;;;22.20;;
80247;SDS011;69560;52.206;21.018;2024-03-02T07:10:34;32.60;;;23.30;;
80247;SDS011;69560;52.206;21.018;2024-03-02T07:13:00;33.70;;;21.50;;
80247;SDS011;69560;52.206;21.018;2024-03-02T07:15:27;35.20;;;22.50;;
80247;SDS011;69560;52.206;21.018;2024-03-02T07:17:54;36.10;;;23.00;;
80247;SDS011;69560;52.206;21.018;2024-03-02T07:20:21;31.00;;;21.00;;
80247;SDS011;69560;52.206;21.018;2024-03-02T07:22:47;38.80;;;24.00;;
80247;SDS011;69560;52.206;21.018;2024-03-02T07:25:14;32.90;;;22.70;;
80247;SDS011;69560;52.206;21.018;2024-03-02T07:27:40;37.70;;;24.40;;
80247;SDS011;69560;52.206;21.018;2024-03-02T07:30:07;38.70;;;24.30;;
80247;SDS011;69560;52.206;21.018;2024-03-02T07:32:34;38.20;;;24.20;;
80247;SDS011;69560;52.206;21.018;2024-03-02T07:35:01;37.90;;;24.20;;
80247;SDS011;69560;52.206;21.018;2024-03-02T07:37:27;35.60;;;23.30;;
80247;SDS011;69560;52.206;21.018;2024-03-02T07:39:54;35.40;;;21.90;;
80247;SDS011;69560;52.206;21.018;2024-03-02T07:42:21;33.30;;;21.60;;
80247;SDS011;69560;52.206;21.018;2024-03-02T07:44:48;34.60;;;22.10;;
80247;SDS011;69560;52.206;21.018;2024-03-02T07:47:14;36.30;;;22.60;;
80247;SDS011;69560;52.206;21.018;2024-03-02T07:49:41;35.10;;;22.10;;
80247;SDS011;69560;52.206;21.018;2024-03-02T07:52:07;34.60;;;23.40;;
80247;SDS011;69560;52.206;21.018;2024-03-02T07:54:34;35.40;;;23.90;;
80247;SDS011;69560;52.206;21.018;2024-03-02T07:57:00;34.70;;;23.20;;
80247;SDS011;69560;52.206;21.018;2024-03-02T07:59:27;39.20;;;23.50;;
80247;SDS011;69560;52.206;21.018;2024-03-02T08:01:54;40.50;;;24.90;;
80247;SDS011;69560;52.206;21.018;2024-03-02T08:04:21;37.90;;;23.50;;
80247;SDS011;69560;52.206;21.018;2024-03-02T08:06:49;42.10;;;24.90;;
80247;SDS011;69560;52.206;21.018;2024-03-02T08:09:16;36.20;;;23.00;;
80247;SDS011;69560;52.206;21.018;2024-03-02T08:11:42;36.20;;;22.80;;
80247;SDS011;69560;52.206;21.018;2024-03-02T08:14:08;35.20;;;22.70;;
80247;SDS011;69560;52.206;21.018;2024-03-02T08:16:35;32.30;;;22.40;;
80247;SDS011;69560;52.206;21.018;2024-03-02T08:19:01;32.30;;;21.50;;
80247;SDS011;69560;52.206;21.018;2024-03-02T08:21:29;34.00;;;22.70;;
80247;SDS011;69560;52.206;21.018;2024-03-02T08:24:02;37.00;;;22.60;;
80247;SDS011;69560;52.206;21.018;2024-03-02T08:26:29;38.00;;;22.50;;
80247;SDS011;69560;52.206;21.018;2024-03-02T08:28:58;39.20;;;23.00;;
80247;SDS011;69560;52.206;21.018;2024-03-02T08:31:25;32.10;;;21.80;;
80247;SDS011;69560;52.206;21.018;2024-03-02T08:33:51;33.10;;;20.80;;
80247;SDS011;69560;52.206;21.018;2024-03-02T08:36:18;35.70;;;23.10;;
80247;SDS011;69560;52.206;21.018;2024-03-02T08:38:45;35.00;;;22.50;;
80247;SDS011;69560;52.206;21.018;2024-03-02T08:41:12;35.30;;;22.70;;
80247;SDS011;69560;52.206;21.018;2024-03-02T08:43:40;35.40;;;22.90;;
80247;SDS011;69560;52.206;21.018;2024-03-02T08:46:08;36.90;;;24.50;;
80247;SDS011;69560;52.206;21.018;2024-03-02T08:48:34;37.60;;;23.30;;
80247;SDS011;69560;52.206;21.018;2024-03-02T08:51:01;34.70;;;22.80;;
80247;SDS011;69560;52.206;21.018;2024-03-02T08:53:30;34.50;;;22.70;;
80247;SDS011;69560;52.206;21.018;2024-03-02T08:55:57;34.60;;;21.60;;
80247;SDS011;69560;52.206;21.018;2024-03-02T08:58:24;35.70;;;23.20;;
80247;SDS011;69560;52.206;21.018;2024-03-02T09:00:50;34.60;;;22.20;;
80247;SDS011;69560;52.206;21.018;2024-03-02T09:03:17;36.30;;;23.90;;
80247;SDS011;69560;52.206;21.018;2024-03-02T09:05:43;35.70;;;22.40;;
80247;SDS011;69560;52.206;21.018;2024-03-02T09:08:11;37.70;;;23.20;;
80247;SDS011;69560;52.206;21.018;2024-03-02T09:10:37;35.20;;;23.20;;
80247;SDS011;69560;52.206;21.018;2024-03-02T09:13:05;38.50;;;23.10;;
80247;SDS011;69560;52.206;21.018;2024-03-02T09:15:32;34.80;;;22.80;;
80247;SDS011;69560;52.206;21.018;2024-03-02T09:17:58;34.30;;;22.10;;
80247;SDS011;69560;52.206;21.018;2024-03-02T09:20:25;35.70;;;23.10;;
80247;SDS011;69560;52.206;21.018;2024-03-02T09:22:51;29.90;;;19.30;;
80247;SDS011;69560;52.206;21.018;2024-03-02T09:25:18;37.90;;;24.20;;
80247;SDS011;69560;52.206;21.018;2024-03-02T09:27:44;38.70;;;23.80;;
80247;SDS011;69560;52.206;21.018;2024-03-02T09:30:11;36.30;;;23.20;;
80247;SDS011;69560;52.206;21.018;2024-03-02T09:32:39;35.60;;;22.80;;
80247;SDS011;69560;52.206;21.018;2024-03-02T09:35:07;35.70;;;23.30;;
80247;SDS011;69560;52.206;21.018;2024-03-02T09:37:33;34.40;;;22.50;;
80247;SDS011;69560;52.206;21.018;2024-03-02T09:40:02;35.40;;;22.60;;
80247;SDS011;69560;52.206;21.018;2024-03-02T09:42:29;32.10;;;21.80;;
80247;SDS011;69560;52.206;21.018;2024-03-02T09:44:56;33.60;;;21.80;;
80247;SDS011;69560;52.206;21.018;2024-03-02T09:47:23;37.20;;;23.80;;
80247;SDS011;69560;52.206;21.018;2024-03-02T09:49:49;35.60;;;23.20;;
80247;SDS011;69560;52.206;21.018;2024-03-02T09:52:16;38.40;;;23.50;;
80247;SDS011;69560;52.206;21.018;2024-03-02T09:54:43;34.10;;;23.50;;
80247;SDS011;69560;52.206;21.018;2024-03-02T09:57:10;37.40;;;21.70;;
80247;SDS011;69560;52.206;21.018;2024-03-02T09:59:36;42.80;;;24.00;;
80247;SDS011;69560;52.206;21.018;2024-03-02T10:02:03;39.00;;;24.70;;
80247;SDS011;69560;52.206;21.018;2024-03-02T10:04:30;38.80;;;25.00;;
80247;SDS011;69560;52.206;21.018;2024-03-02T10:09:40;38.50;;;24.30;;
80247;SDS011;69560;52.206;21.018;2024-03-02T10:12:08;40.00;;;25.20;;
80247;SDS011;69560;52.206;21.018;2024-03-02T10:14:36;34.80;;;23.90;;
80247;SDS011;69560;52.206;21.018;2024-03-02T10:17:06;38.00;;;24.50;;
80247;SDS011;69560;52.206;21.018;2024-03-02T10:19:34;36.60;;;24.90;;
80247;SDS011;69560;52.206;21.018;2024-03-02T10:22:03;37.30;;;25.00;;
80247;SDS011;69560;52.206;21.018;2024-03-02T10:24:44;37.70;;;24.70;;
80247;SDS011;69560;52.206;21.018;2024-03-02T10:27:17;38.30;;;24.00;;
80247;SDS011;69560;52.206;21.018;2024-03-02T10:29:47;38.90;;;25.70;;
80247;SDS011;69560;52.206;21.018;2024-03-02T10:32:15;37.10;;;24.00;;
80247;SDS011;69560;52.206;21.018;2024-03-02T10:34:43;36.80;;;24.80;;
80247;SDS011;69560;52.206;21.018;2024-03-02T10:37:11;39.00;;;25.10;;
80247;SDS011;69560;52.206;21.018;2024-03-02T10:39:38;38.50;;;25.10;;
80247;SDS011;69560;52.206;21.018;2024-03-02T10:42:06;39.10;;;24.60;;
80247;SDS011;69560;52.206;21.018;2024-03-02T10:44:35;38.20;;;24.70;;
80247;SDS011;69560;52.206;21.018;2024-03-02T10:47:03;36.90;;;23.80;;
80247;SDS011;69560;52.206;21.018;2024-03-02T10:49:31;38.40;;;23.00;;
80247;SDS011;69560;52.206;21.018;2024-03-02T10:51:59;39.10;;;23.80;;
80247;SDS011;69560;52.206;21.018;2024-03-02T10:54:26;35.70;;;24.00;;
80247;SDS011;69560;52.206;21.018;2024-03-02T10:56:56;36.10;;;23.70;;
80247;SDS011;69560;52.206;21.018;2024-03-02T11:01:53;42.90;;;28.00;;
80247;SDS011;69560;52.206;21.018;2024-03-02T11:04:26;41.60;;;25.00;;
80247;SDS011;69560;52.206;21.018;2024-03-02T11:07:04;39.50;;;26.40;;
80247;SDS011;69560;52.206;21.018;2024-03-02T11:09:35;41.60;;;25.90;;
80247;SDS011;69560;52.206;21.018;2024-03-02T11:14:56;39.50;;;25.90;;
80247;SDS011;69560;52.206;21.018;2024-03-02T11:17:24;40.10;;;26.00;;
80247;SDS011;69560;52.206;21.018;2024-03-02T11:19:52;43.80;;;27.30;;
80247;SDS011;69560;52.206;21.018;2024-03-02T11:22:19;40.50;;;27.40;;
80247;SDS011;69560;52.206;21.018;2024-03-02T11:24:50;43.80;;;28.80;;
80247;SDS011;69560;52.206;21.018;2024-03-02T11:30:48;43.80;;;28.60;;
80247;SDS011;69560;52.206;21.018;2024-03-02T11:33:05;39.30;;;29.00;;
80247;SDS011;69560;52.206;21.018;2024-03-02T11:35:35;44.80;;;29.90;;
80247;SDS011;69560;52.206;21.018;2024-03-02T11:38:03;49.80;;;30.10;;
80247;SDS011;69560;52.206;21.018;2024-03-02T11:40:30;40.80;;;28.50;;
80247;SDS011;69560;52.206;21.018;2024-03-02T11:42:58;46.30;;;30.90;;
80247;SDS011;69560;52.206;21.018;2024-03-02T11:45:26;42.10;;;30.30;;
80247;SDS011;69560;52.206;21.018;2024-03-02T11:47:53;46.10;;;32.20;;
80247;SDS011;69560;52.206;21.018;2024-03-02T11:50:28;45.90;;;33.00;;
80247;SDS011;69560;52.206;21.018;2024-03-02T11:52:57;49.30;;;33.60;;
80247;SDS011;69560;52.206;21.018;2024-03-02T11:55:27;49.70;;;33.70;;
80247;SDS011;69560;52.206;21.018;2024-03-02T11:57:56;54.30;;;34.90;;
80247;SDS011;69560;52.206;21.018;2024-03-02T12:00:25;48.30;;;35.20;;
80247;SDS011;69560;52.206;21.018;2024-03-02T12:03:11;44.50;;;33.70;;
80247;SDS011;69560;52.206;21.018;2024-03-02T12:05:39;49.40;;;34.20;;
80247;SDS011;69560;52.206;21.018;2024-03-02T12:08:06;49.20;;;34.00;;
80247;SDS011;69560;52.206;21.018;2024-03-02T12:10:33;44.90;;;33.90;;
80247;SDS011;69560;52.206;21.018;2024-03-02T12:13:01;47.70;;;34.30;;
80247;SDS011;69560;52.206;21.018;2024-03-02T12:15:30;47.00;;;35.00;;
80247;SDS011;69560;52.206;21.018;2024-03-02T12:17:59;47.80;;;36.40;;
80247;SDS011;69560;52.206;21.018;2024-03-02T12:20:27;51.10;;;35.20;;
80247;SDS011;69560;52.206;21.018;2024-03-02T12:22:57;58.10;;;40.40;;
80247;SDS011;69560;52.206;21.018;2024-03-02T12:25:25;49.40;;;36.40;;
80247;SDS011;69560;52.206;21.018;2024-03-02T12:27:56;67.90;;;51.00;;
80247;SDS011;69560;52.206;21.018;2024-03-02T12:30:24;49.80;;;36.90;;
80247;SDS011;69560;52.206;21.018;2024-03-02T12:32:55;50.30;;;35.40;;
80247;SDS011;69560;52.206;21.018;2024-03-02T12:35:22;47.20;;;35.40;;
80247;SDS011;69560;52.206;21.018;2024-03-02T12:37:52;47.80;;;33.30;;
80247;SDS011;69560;52.206;21.018;2024-03-02T12:40:19;45.10;;;31.90;;
80247;SDS011;69560;52.206;21.018;2024-03-02T12:42:49;40.00;;;32.60;;
80247;SDS011;69560;52.206;21.018;2024-03-02T12:45:16;51.00;;;33.00;;
80247;SDS011;69560;52.206;21.018;2024-03-02T12:47:49;44.20;;;31.90;;
80247;SDS011;69560;52.206;21.018;2024-03-02T12:50:17;44.90;;;33.10;;
80247;SDS011;69560;52.206;21.018;2024-03-02T12:52:50;44.40;;;33.20;;
80247;SDS011;69560;52.206;21.018;2024-03-02T12:55:19;48.00;;;31.80;;
80247;SDS011;69560;52.206;21.018;2024-03-02T12:57:47;42.00;;;32.10;;
80247;SDS011;69560;52.206;21.018;2024-03-02T13:00:13;40.90;;;32.50;;
80247;SDS011;69560;52.206;21.018;2024-03-02T13:02:40;40.90;;;31.60;;
80247;SDS011;69560;52.206;21.018;2024-03-02T13:05:08;43.90;;;32.60;;
80247;SDS011;69560;52.206;21.018;2024-03-02T13:07:37;45.90;;;33.50;;
80247;SDS011;69560;52.206;21.018;2024-03-02T13:10:05;45.90;;;35.10;;
80247;SDS011;69560;52.206;21.018;2024-03-02T13:12:35;45.00;;;33.80;;
80247;SDS011;69560;52.206;21.018;2024-03-02T13:15:02;46.30;;;33.50;;
80247;SDS011;69560;52.206;21.018;2024-03-02T13:17:30;41.90;;;32.70;;
80247;SDS011;69560;52.206;21.018;2024-03-02T13:19:58;46.10;;;33.80;;
80247;SDS011;69560;52.206;21.018;2024-03-02T13:22:26;42.80;;;32.20;;
80247;SDS011;69560;52.206;21.018;2024-03-02T13:24:53;45.80;;;34.60;;
80247;SDS011;69560;52.206;21.018;2024-03-02T13:27:20;44.40;;;32.80;;
80247;SDS011;69560;52.206;21.018;2024-03-02T13:29:47;46.80;;;34.20;;
80247;SDS011;69560;52.206;21.018;2024-03-02T13:32:14;46.50;;;33.70;;
80247;SDS011;69560;52.206;21.018;2024-03-02T13:34:41;44.60;;;34.30;;
80247;SDS011;69560;52.206;21.018;2024-03-02T13:37:09;46.30;;;34.70;;
80247;SDS011;69560;52.206;21.018;2024-03-02T13:39:36;45.40;;;33.80;;
80247;SDS011;69560;52.206;21.018;2024-03-02T13:42:10;44.80;;;34.50;;
80247;SDS011;69560;52.206;21.018;2024-03-02T13:44:38;48.50;;;34.10;;
80247;SDS011;69560;52.206;21.018;2024-03-02T13:47:05;53.30;;;38.50;;
80247;SDS011;69560;52.206;21.018;2024-03-02T13:49:32;48.70;;;36.10;;
80247;SDS011;69560;52.206;21.018;2024-03-02T13:52:09;50.00;;;36.40;;
80247;SDS011;69560;52.206;21.018;2024-03-02T13:54:37;50.70;;;36.70;;
80247;SDS011;69560;52.206;21.018;2024-03-02T13:57:05;47.50;;;37.30;;
80247;SDS011;69560;52.206;21.018;2024-03-02T13:59:33;48.60;;;36.40;;
80247;SDS011;69560;52.206;21.018;2024-03-02T14:02:01;49.50;;;36.20;;
80247;SDS011;69560;52.206;21.018;2024-03-02T14:04:32;47.50;;;36.40;;
80247;SDS011;69560;52.206;21.018;2024-03-02T14:07:00;49.80;;;36.30;;
80247;SDS011;69560;52.206;21.018;2024-03-02T14:09:27;51.20;;;36.40;;
80247;SDS011;69560;52.206;21.018;2024-03-02T14:11:54;57.00;;;38.60;;
80247;SDS011;69560;52.206;21.018;2024-03-02T14:14:22;50.90;;;36.50;;
80247;SDS011;69560;52.206;21.018;2024-03-02T14:16:49;51.70;;;36.70;;
80247;SDS011;69560;52.206;21.018;2024-03-02T14:19:16;58.30;;;34.70;;
80247;SDS011;69560;52.206;21.018;2024-03-02T14:21:42;49.70;;;35.10;;
80247;SDS011;69560;52.206;21.018;2024-03-02T14:24:09;50.50;;;37.30;;
80247;SDS011;69560;52.206;21.018;2024-03-02T14:26:36;51.00;;;36.20;;
80247;SDS011;69560;52.206;21.018;2024-03-02T14:29:03;50.60;;;37.00;;
80247;SDS011;69560;52.206;21.018;2024-03-02T14:31:30;51.00;;;37.30;;
80247;SDS011;69560;52.206;21.018;2024-03-02T14:33:57;54.50;;;36.00;;